createdAt,value
2019-04-25T00:01:54.465Z,1.70
2019-04-25T00:04:26.165Z,1.60
2019-04-25T00:06:57.311Z,1.97
2019-04-25T00:09:29.873Z,1.70
2019-04-25T00:12:02.465Z,1.80
2019-04-25T00:14:32.673Z,1.70
2019-04-25T00:17:02.570Z,1.90
2019-04-25T00:19:32.972Z,1.70
2019-04-25T00:22:04.434Z,1.90
2019-04-25T00:24:39.770Z,1.73
2019-04-25T00:27:09.832Z,1.80
2019-04-25T00:29:43.891Z,1.77
2019-04-25T00:32:17.125Z,1.70
2019-04-25T00:34:51.679Z,1.93
2019-04-25T00:37:23.993Z,2.10
2019-04-25T00:39:53.869Z,2.00
2019-04-25T00:42:24.053Z,1.70
2019-04-25T00:44:53.956Z,1.90
2019-04-25T00:47:24.693Z,1.80
2019-04-25T00:49:55.377Z,1.70
2019-04-25T00:52:26.093Z,1.97
2019-04-25T00:54:58.521Z,1.70
2019-04-25T00:57:32.069Z,1.73
2019-04-25T01:00:21.691Z,1.90
2019-04-25T01:02:54.630Z,2.07
2019-04-25T01:05:24.561Z,1.80
2019-04-25T01:07:54.643Z,1.87
2019-04-25T01:10:27.499Z,1.80
2019-04-25T01:12:58.713Z,1.77
2019-04-25T01:15:28.193Z,2.00
2019-04-25T01:18:02.341Z,2.00
2019-04-25T01:20:32.626Z,1.87
2019-04-25T01:23:05.167Z,1.80
2019-04-25T01:25:40.930Z,1.80
2019-04-25T01:28:10.760Z,2.00
2019-04-25T01:30:43.801Z,1.57
2019-04-25T01:33:14.187Z,2.10
2019-04-25T01:35:47.350Z,1.67
2019-04-25T01:38:37.041Z,1.80
2019-04-25T01:41:15.233Z,1.90
2019-04-25T01:43:56.636Z,1.90
2019-04-25T01:46:24.344Z,1.90
2019-04-25T01:48:55.435Z,1.87
2019-04-25T01:51:28.083Z,1.73
2019-04-25T01:53:59.098Z,1.93
2019-04-25T01:56:30.197Z,2.07
2019-04-25T01:59:03.763Z,1.70
2019-04-25T02:01:35.501Z,2.10
2019-04-25T02:04:05.853Z,1.90
2019-04-25T02:06:35.717Z,2.23
2019-04-25T02:09:13.523Z,1.67
2019-04-25T02:11:46.738Z,1.90
2019-04-25T02:14:18.085Z,1.80
2019-04-25T02:16:48.227Z,2.07
2019-04-25T02:19:17.977Z,2.00
2019-04-25T02:21:49.230Z,1.97
2019-04-25T02:24:19.509Z,1.93
2019-04-25T02:26:49.392Z,1.87
2019-04-25T02:29:20.413Z,2.23
2019-04-25T02:31:50.632Z,1.90
2019-04-25T02:34:24.832Z,1.90
2019-04-25T02:36:58.893Z,1.63
2019-04-25T02:39:28.631Z,1.83
2019-04-25T02:42:02.494Z,2.10
2019-04-25T02:44:34.708Z,2.10
2019-04-25T02:47:09.165Z,2.10
2019-04-25T02:49:46.155Z,2.03
2019-04-25T02:52:18.454Z,2.17
2019-04-25T02:54:49.142Z,2.47
2019-04-25T02:57:20.171Z,2.20
2019-04-25T02:59:51.863Z,2.07
2019-04-25T03:02:24.758Z,2.50
2019-04-25T03:04:54.939Z,2.87
2019-04-25T03:07:25.000Z,2.27
2019-04-25T03:09:58.055Z,2.43
2019-04-25T03:12:33.506Z,2.67
2019-04-25T03:15:05.286Z,2.30
2019-04-25T03:17:35.910Z,2.10
2019-04-25T03:20:16.538Z,2.53
2019-04-25T03:22:47.430Z,2.23
2019-04-25T03:25:18.398Z,2.00
2019-04-25T03:27:47.821Z,2.30
2019-04-25T03:30:18.341Z,2.27
2019-04-25T03:32:51.498Z,2.50
2019-04-25T03:35:21.002Z,1.93
2019-04-25T03:37:51.187Z,2.10
2019-04-25T03:40:23.537Z,2.20
2019-04-25T03:42:54.750Z,1.87
2019-04-25T03:45:25.595Z,1.97
2019-04-25T03:47:57.213Z,2.30
2019-04-25T03:50:27.993Z,2.10
2019-04-25T03:52:58.083Z,2.60
2019-04-25T03:55:30.614Z,2.00
2019-04-25T03:58:07.941Z,1.80
2019-04-25T04:00:37.943Z,2.40
2019-04-25T04:03:09.028Z,1.73
2019-04-25T04:05:38.945Z,1.97
2019-04-25T04:08:09.985Z,1.80
2019-04-25T04:10:41.095Z,1.97
2019-04-25T04:13:12.339Z,1.77
2019-04-25T04:15:43.401Z,2.20
2019-04-25T04:18:21.950Z,2.00
2019-04-25T04:20:53.789Z,2.43
2019-04-25T04:23:29.354Z,2.00
2019-04-25T04:26:00.007Z,2.30
2019-04-25T04:28:30.069Z,2.20
2019-04-25T04:30:59.927Z,2.30
2019-04-25T04:33:34.670Z,2.10
2019-04-25T04:36:07.334Z,2.53
2019-04-25T04:38:37.745Z,2.30
2019-04-25T04:41:09.927Z,2.70
2019-04-25T04:43:39.786Z,2.10
2019-04-25T04:46:10.205Z,2.37
2019-04-25T04:48:41.332Z,2.37
2019-04-25T04:51:10.698Z,2.10
2019-04-25T04:53:43.702Z,2.20
2019-04-25T04:56:15.555Z,2.23
2019-04-25T04:58:47.430Z,3.10
2019-04-25T05:01:20.123Z,1.90
2019-04-25T05:03:59.438Z,1.90
2019-04-25T05:06:34.021Z,2.30
2019-04-25T05:09:16.475Z,2.47
2019-04-25T05:11:47.460Z,2.40
2019-04-25T05:14:17.545Z,2.23
2019-04-25T05:16:49.552Z,2.43
2019-04-25T05:19:22.028Z,2.50
2019-04-25T05:21:53.731Z,2.10
2019-04-25T05:24:26.450Z,2.10
2019-04-25T05:26:58.494Z,1.87
2019-04-25T05:29:30.657Z,2.00
2019-04-25T05:32:00.529Z,2.13
2019-04-25T05:34:32.281Z,2.00
2019-04-25T05:37:03.824Z,1.70
2019-04-25T05:39:35.061Z,1.77
2019-04-25T05:42:08.846Z,1.80
2019-04-25T05:44:39.072Z,1.87
2019-04-25T05:47:10.252Z,2.27
2019-04-25T05:49:41.337Z,1.87
2019-04-25T05:52:13.942Z,1.70
2019-04-25T05:54:47.241Z,1.90
2019-04-25T05:57:18.354Z,1.87
2019-04-25T05:59:49.182Z,2.07
2019-04-25T06:02:20.236Z,2.00
2019-04-25T06:04:51.669Z,1.90
2019-04-25T06:07:22.301Z,2.07
2019-04-25T06:09:54.635Z,1.60
2019-04-25T06:12:28.414Z,2.00
2019-04-25T06:14:59.542Z,1.63
2019-04-25T06:17:34.895Z,1.67
2019-04-25T06:20:08.100Z,1.93
2019-04-25T06:22:49.601Z,2.10
2019-04-25T06:25:22.932Z,2.00
2019-04-25T06:27:57.322Z,1.90
2019-04-25T06:30:28.374Z,1.80
2019-04-25T06:32:57.812Z,2.00
2019-04-25T06:35:29.519Z,2.03
2019-04-25T06:38:03.543Z,1.60
2019-04-25T06:40:34.591Z,2.00
2019-04-25T06:43:05.902Z,1.90
2019-04-25T06:45:44.287Z,1.77
2019-04-25T06:48:16.218Z,1.80
2019-04-25T06:50:50.710Z,1.80
2019-04-25T06:53:23.082Z,1.80
2019-04-25T06:55:53.644Z,1.90
2019-04-25T06:58:26.058Z,1.83
2019-04-25T07:01:00.822Z,1.87
2019-04-25T07:03:29.435Z,2.00
2019-04-25T07:06:01.076Z,1.70
2019-04-25T07:08:33.263Z,1.60
2019-04-25T07:11:03.951Z,2.00
2019-04-25T07:13:38.560Z,1.60
2019-04-25T07:16:09.697Z,1.43
2019-04-25T07:18:40.839Z,1.70
2019-04-25T07:21:11.556Z,2.00
2019-04-25T07:23:43.231Z,2.00
2019-04-25T07:26:15.501Z,1.67
2019-04-25T07:29:03.345Z,1.70
2019-04-25T07:31:40.125Z,1.70
2019-04-25T07:34:15.535Z,1.63
2019-04-25T07:36:46.577Z,1.93
2019-04-25T07:39:17.599Z,1.67
2019-04-25T07:41:48.441Z,1.77
2019-04-25T07:44:20.836Z,2.17
2019-04-25T07:46:49.945Z,1.70
2019-04-25T07:49:19.628Z,1.80
2019-04-25T07:51:49.819Z,1.97
2019-04-25T07:54:23.994Z,1.60
2019-04-25T07:56:55.221Z,2.20
2019-04-25T07:59:27.364Z,1.93
2019-04-25T08:01:57.614Z,2.03
2019-04-25T08:04:29.049Z,1.73
2019-04-25T08:07:00.175Z,1.87
2019-04-25T08:09:35.263Z,1.90
2019-04-25T08:12:06.533Z,1.90
2019-04-25T08:14:40.501Z,1.93
2019-04-25T08:17:15.005Z,2.10
2019-04-25T08:19:44.860Z,1.93
2019-04-25T08:22:18.150Z,1.63
2019-04-25T08:24:49.782Z,2.00
2019-04-25T08:27:19.732Z,2.20
2019-04-25T08:29:52.004Z,1.80
2019-04-25T08:32:21.914Z,1.80
2019-04-25T08:34:54.146Z,1.90
2019-04-25T08:37:27.756Z,1.80
2019-04-25T08:39:59.680Z,1.70
2019-04-25T08:42:31.455Z,2.00
2019-04-25T08:45:03.682Z,1.93
2019-04-25T08:47:36.031Z,1.83
2019-04-25T08:50:26.357Z,1.80
2019-04-25T08:52:44.989Z,1.87
2019-04-25T08:55:34.915Z,2.03
2019-04-25T08:58:08.389Z,1.80
2019-04-25T09:00:44.578Z,1.97
2019-04-25T09:03:19.013Z,2.00
2019-04-25T09:05:50.769Z,1.80
2019-04-25T09:08:21.981Z,2.00
2019-04-25T09:10:53.743Z,1.77
2019-04-25T09:13:23.649Z,1.70
2019-04-25T09:15:55.086Z,1.70
2019-04-25T09:18:25.847Z,1.83
2019-04-25T09:20:56.867Z,1.63
2019-04-25T09:23:26.737Z,1.97
2019-04-25T09:25:56.526Z,1.80
2019-04-25T09:28:29.038Z,1.57
2019-04-25T09:30:59.510Z,1.67
2019-04-25T09:33:29.814Z,1.70
2019-04-25T09:36:02.633Z,1.90
2019-04-25T09:38:34.792Z,1.83
2019-04-25T09:41:04.064Z,2.03
2019-04-25T09:43:35.724Z,1.80
2019-04-25T09:46:14.411Z,1.90
2019-04-25T09:48:57.135Z,1.60
2019-04-25T09:51:29.794Z,2.00
2019-04-25T09:54:03.502Z,1.90
2019-04-25T09:56:40.511Z,1.80
2019-04-25T09:59:26.780Z,1.90
2019-04-25T10:01:50.163Z,1.60
2019-04-25T10:04:23.161Z,1.77
2019-04-25T10:06:55.218Z,1.80
2019-04-25T10:09:26.590Z,2.00
2019-04-25T10:11:56.866Z,1.63
2019-04-25T10:14:37.516Z,1.50
2019-04-25T10:17:07.415Z,1.60
2019-04-25T10:19:37.746Z,1.90
2019-04-25T10:22:09.512Z,1.50
2019-04-25T10:24:39.687Z,1.70
2019-04-25T10:27:10.581Z,1.50
2019-04-25T10:29:48.316Z,1.60
2019-04-25T10:32:15.085Z,1.63
2019-04-25T10:34:46.199Z,1.73
2019-04-25T10:37:17.060Z,1.77
2019-04-25T10:39:47.334Z,1.70
2019-04-25T10:42:17.229Z,1.30
2019-04-25T10:44:48.387Z,1.53
2019-04-25T10:47:19.899Z,1.67
2019-04-25T10:49:49.504Z,1.70
2019-04-25T10:52:20.523Z,1.60
2019-04-25T10:54:54.151Z,1.43
2019-04-25T10:57:29.061Z,1.70
2019-04-25T11:00:06.549Z,1.53
2019-04-25T11:02:33.944Z,1.57
2019-04-25T11:05:16.672Z,1.50
2019-04-25T11:07:48.662Z,1.40
2019-04-25T11:10:20.189Z,1.40
2019-04-25T11:12:51.195Z,1.50
2019-04-25T11:15:23.383Z,1.60
2019-04-25T11:17:55.166Z,1.57
2019-04-25T11:20:28.364Z,1.40
2019-04-25T11:22:58.803Z,1.50
2019-04-25T11:25:29.400Z,1.40
2019-04-25T11:28:00.050Z,1.50
2019-04-25T11:30:32.214Z,1.50
2019-04-25T11:33:03.995Z,1.40
2019-04-25T11:35:34.709Z,1.40
2019-04-25T11:38:06.649Z,1.50
2019-04-25T11:40:43.436Z,1.77
2019-04-25T11:43:14.140Z,1.40
2019-04-25T11:45:45.083Z,1.37
2019-04-25T11:48:20.011Z,1.50
2019-04-25T11:50:51.657Z,1.50
2019-04-25T11:53:24.966Z,1.30
2019-04-25T11:55:55.458Z,1.40
2019-04-25T11:58:28.406Z,1.67
2019-04-25T12:00:59.309Z,1.40
2019-04-25T12:03:33.491Z,1.50
2019-04-25T12:06:04.615Z,1.40
2019-04-25T12:08:34.914Z,1.30
2019-04-25T12:11:05.977Z,1.63
2019-04-25T12:13:36.801Z,1.50
2019-04-25T12:16:07.909Z,1.57
2019-04-25T12:18:38.661Z,1.43
2019-04-25T12:21:11.049Z,1.47
2019-04-25T12:26:33.691Z,1.47
2019-04-25T12:29:04.402Z,1.40
2019-04-25T12:31:34.703Z,1.30
2019-04-25T12:34:05.749Z,1.30
2019-04-25T12:36:36.983Z,1.40
2019-04-25T12:39:07.198Z,1.40
2019-04-25T12:41:38.377Z,1.40
2019-04-25T12:44:26.112Z,1.17
2019-04-25T12:46:57.889Z,1.20
2019-04-25T12:49:27.898Z,1.30
2019-04-25T12:51:58.744Z,1.40
2019-04-25T12:54:28.604Z,1.10
2019-04-25T12:57:00.020Z,1.27
2019-04-25T12:59:31.165Z,1.40
2019-04-25T13:02:04.356Z,1.30
2019-04-25T13:04:37.312Z,1.40
2019-04-25T13:07:09.108Z,1.30
2019-04-25T13:09:40.310Z,1.40
2019-04-25T13:12:14.619Z,1.33
2019-04-25T13:14:45.632Z,1.40
2019-04-25T13:17:18.470Z,1.27
2019-04-25T13:19:51.000Z,1.20
2019-04-25T13:22:22.190Z,1.23
2019-04-25T13:24:56.104Z,1.37
2019-04-25T13:27:35.745Z,1.30
2019-04-25T13:30:24.185Z,1.20
2019-04-25T13:32:56.532Z,1.63
2019-04-25T13:35:37.125Z,1.47
2019-04-25T13:38:08.789Z,1.30
2019-04-25T13:40:38.877Z,1.10
2019-04-25T13:43:10.043Z,1.20
2019-04-25T13:45:39.917Z,1.30
2019-04-25T13:48:10.860Z,1.40
2019-04-25T13:50:44.324Z,1.20
2019-04-25T13:53:15.837Z,1.20
2019-04-25T13:55:45.710Z,1.30
2019-04-25T13:58:16.662Z,1.50
2019-04-25T14:00:48.165Z,1.30
2019-04-25T14:03:22.910Z,1.40
2019-04-25T14:05:54.039Z,1.30
2019-04-25T14:08:25.646Z,1.33
2019-04-25T14:10:55.874Z,1.30
2019-04-25T14:13:27.744Z,1.27
2019-04-25T14:16:00.184Z,1.10
2019-04-25T14:18:35.457Z,0.93
2019-04-25T14:21:13.816Z,1.10
2019-04-25T14:23:44.283Z,1.40
2019-04-25T14:26:15.553Z,1.40
2019-04-25T14:28:45.323Z,1.30
2019-04-25T14:31:30.519Z,1.30
2019-04-25T14:33:51.781Z,1.40
2019-04-25T14:36:22.319Z,1.90
2019-04-25T14:38:53.098Z,1.37
2019-04-25T14:41:23.888Z,1.57
2019-04-25T14:43:56.462Z,1.43
2019-04-25T14:46:27.825Z,1.50
2019-04-25T14:48:57.757Z,1.50
2019-04-25T14:51:28.157Z,1.30
2019-04-25T14:54:00.057Z,1.43
2019-04-25T14:56:33.249Z,1.57
2019-04-25T14:59:03.026Z,1.30
2019-04-25T15:01:44.240Z,1.60
2019-04-25T15:04:04.684Z,1.10
2019-04-25T15:06:34.762Z,1.43
2019-04-25T15:09:10.309Z,1.40
2019-04-25T15:11:43.118Z,1.70
2019-04-25T15:14:13.961Z,1.40
2019-04-25T15:16:44.965Z,1.20
2019-04-25T15:19:16.489Z,1.50
2019-04-25T15:21:46.596Z,1.60
2019-04-25T15:24:19.015Z,1.50
2019-04-25T15:26:49.769Z,3.30
2019-04-25T15:29:19.909Z,1.70
2019-04-25T15:31:55.747Z,1.70
2019-04-25T15:34:22.540Z,1.50
2019-04-25T15:36:57.388Z,1.50
2019-04-25T15:39:41.191Z,1.67
2019-04-25T15:42:21.317Z,1.80
2019-04-25T15:44:56.217Z,1.50
2019-04-25T15:47:30.564Z,2.00
2019-04-25T15:50:00.452Z,2.20
2019-04-25T15:52:33.929Z,1.90
2019-04-25T15:55:07.475Z,1.90
2019-04-25T15:57:36.168Z,1.90
2019-04-25T16:00:09.527Z,1.97
2019-04-25T16:02:41.178Z,1.87
2019-04-25T16:05:12.297Z,1.90
2019-04-25T16:07:45.101Z,1.93
2019-04-25T16:10:16.874Z,2.10
2019-04-25T16:12:48.912Z,4.10
2019-04-25T16:15:18.717Z,4.60
2019-04-25T16:17:49.460Z,4.87
2019-04-25T16:20:19.242Z,5.50
2019-04-25T16:22:49.930Z,4.60
2019-04-25T16:25:20.974Z,4.87
2019-04-25T16:27:54.101Z,4.33
2019-04-25T16:30:25.225Z,4.90
2019-04-25T16:32:56.177Z,4.53
2019-04-25T16:35:29.818Z,4.60
2019-04-25T16:38:02.486Z,4.10
2019-04-25T16:40:34.029Z,4.10
2019-04-25T16:43:09.610Z,4.10
2019-04-25T16:45:43.657Z,4.30
2019-04-25T16:48:14.486Z,3.83
2019-04-25T16:50:45.625Z,3.17
2019-04-25T16:53:15.488Z,3.50
2019-04-25T16:55:46.194Z,4.33
2019-04-25T16:58:16.857Z,4.27
2019-04-25T17:00:49.498Z,5.07
2019-04-25T17:03:22.446Z,5.97
2019-04-25T17:05:52.237Z,7.20
2019-04-25T17:08:22.923Z,7.47
2019-04-25T17:10:53.318Z,6.70
2019-04-25T17:13:24.279Z,6.13
2019-04-25T17:15:56.984Z,6.90
2019-04-25T17:18:34.068Z,6.67
2019-04-25T17:21:11.669Z,5.83
2019-04-25T17:23:42.091Z,5.77
2019-04-25T17:26:15.110Z,4.30
2019-04-25T17:28:47.985Z,3.33
2019-04-25T17:31:29.805Z,2.60
2019-04-25T17:34:07.108Z,2.10
2019-04-25T17:36:52.569Z,2.53
2019-04-25T17:39:27.426Z,2.47
2019-04-25T17:42:01.347Z,1.93
2019-04-25T17:44:31.670Z,1.60
2019-04-25T17:47:06.535Z,1.30
2019-04-25T17:49:36.846Z,1.50
2019-04-25T17:52:06.814Z,1.50
2019-04-25T17:54:37.521Z,1.47
2019-04-25T17:57:08.210Z,1.30
2019-04-25T17:59:39.215Z,1.50
2019-04-25T18:02:10.605Z,1.63
2019-04-25T18:04:43.065Z,1.70
2019-04-25T18:07:13.937Z,1.60
2019-04-25T18:09:43.699Z,1.60
2019-04-25T18:12:13.581Z,1.43
2019-04-25T18:14:44.619Z,1.63
2019-04-25T18:17:14.597Z,1.40
2019-04-25T18:19:48.766Z,1.50
2019-04-25T18:22:21.145Z,1.30
2019-04-25T18:25:02.441Z,1.73
2019-04-25T18:27:37.631Z,2.17
2019-04-25T18:30:08.581Z,1.80
2019-04-25T18:32:43.318Z,2.03
2019-04-25T18:35:24.749Z,3.00
2019-04-25T18:38:03.182Z,3.97
2019-04-25T18:40:41.965Z,6.13
2019-04-25T18:43:13.942Z,2.87
2019-04-25T18:45:46.572Z,2.40
2019-04-25T18:48:18.857Z,4.33
2019-04-25T18:50:49.501Z,3.40
2019-04-25T18:53:39.136Z,2.93
2019-04-25T18:56:13.417Z,4.60
2019-04-25T18:58:53.737Z,2.60
2019-04-25T19:01:33.435Z,2.77
2019-04-25T19:04:13.925Z,2.90
2019-04-25T19:06:55.258Z,2.50
2019-04-25T19:09:16.656Z,2.97
2019-04-25T19:11:48.108Z,1.57
2019-04-25T19:14:20.337Z,2.17
2019-04-25T19:16:51.958Z,2.40
2019-04-25T19:19:23.627Z,3.10
2019-04-25T19:21:53.393Z,2.20
2019-04-25T19:24:24.137Z,2.30
2019-04-25T19:26:54.821Z,1.80
2019-04-25T19:29:25.769Z,2.20
2019-04-25T19:31:55.595Z,3.33
2019-04-25T19:34:25.670Z,2.60
2019-04-25T19:36:56.777Z,1.80
2019-04-25T19:39:28.621Z,1.93
2019-04-25T19:42:09.718Z,2.43
2019-04-25T19:44:41.044Z,3.00
2019-04-25T19:47:12.088Z,4.30
2019-04-25T19:49:44.984Z,3.87
2019-04-25T19:52:18.013Z,3.10
2019-04-25T19:54:49.482Z,5.23
2019-04-25T19:57:20.269Z,3.13
2019-04-25T19:59:51.285Z,2.53
2019-04-25T20:02:25.901Z,4.10
2019-04-25T20:05:08.653Z,6.47
2019-04-25T20:07:43.776Z,5.40
2019-04-25T20:10:18.405Z,3.37
2019-04-25T20:12:51.760Z,4.00
2019-04-25T20:15:21.658Z,2.20
2019-04-25T20:17:52.002Z,3.33
2019-04-25T20:20:21.817Z,3.03
2019-04-25T20:22:52.459Z,2.40
2019-04-25T20:25:22.726Z,2.50
2019-04-25T20:27:52.846Z,2.60
2019-04-25T20:30:23.676Z,2.67
2019-04-25T20:32:55.632Z,2.90
2019-04-25T20:35:25.401Z,2.30
2019-04-25T20:37:56.105Z,2.40
2019-04-25T20:40:27.064Z,2.23
2019-04-25T20:42:58.813Z,2.10
2019-04-25T20:45:31.621Z,2.20
2019-04-25T20:48:03.639Z,2.20
2019-04-25T20:50:34.537Z,2.13
2019-04-25T20:53:04.810Z,2.10
2019-04-25T20:55:35.765Z,2.20
2019-04-25T20:58:09.506Z,2.00
2019-04-25T21:00:40.446Z,1.90
2019-04-25T21:03:13.291Z,2.10
2019-04-25T21:05:43.871Z,1.90
2019-04-25T21:08:17.608Z,1.87
2019-04-25T21:10:47.877Z,2.00
2019-04-25T21:13:19.857Z,2.00
2019-04-25T21:15:56.324Z,2.17
2019-04-25T21:18:29.220Z,2.27
2019-04-25T21:20:59.231Z,2.60
2019-04-25T21:23:29.942Z,2.40
2019-04-25T21:26:01.258Z,2.30
2019-04-25T21:28:33.706Z,1.93
2019-04-25T21:31:04.730Z,2.30
2019-04-25T21:33:35.038Z,2.07
2019-04-25T21:36:06.592Z,1.70
2019-04-25T21:38:38.946Z,2.07
2019-04-25T21:41:13.645Z,1.70
2019-04-25T21:43:45.830Z,1.97
2019-04-25T21:46:16.858Z,2.10
2019-04-25T21:48:49.901Z,2.30
2019-04-25T21:51:33.779Z,2.00
2019-04-25T21:54:04.278Z,1.90
2019-04-25T21:56:35.845Z,2.03
2019-04-25T21:59:07.898Z,2.30
2019-04-25T22:01:43.769Z,2.33
2019-04-25T22:04:14.895Z,2.20
2019-04-25T22:06:46.882Z,2.20
2019-04-25T22:09:21.236Z,2.43
2019-04-25T22:11:51.725Z,2.90
2019-04-25T22:14:23.385Z,2.67
2019-04-25T22:16:53.790Z,2.80
2019-04-25T22:19:25.278Z,3.10
2019-04-25T22:21:57.510Z,3.00
2019-04-25T22:24:29.905Z,2.50
2019-04-25T22:27:03.065Z,2.43
2019-04-25T22:29:34.733Z,2.50
2019-04-25T22:32:08.910Z,2.30
2019-04-25T22:34:52.190Z,2.20
2019-04-25T22:37:15.225Z,2.53
2019-04-25T22:39:45.721Z,2.40
2019-04-25T22:42:16.846Z,2.70
2019-04-25T22:44:50.217Z,2.67
2019-04-25T22:47:22.920Z,2.63
2019-04-25T22:49:55.513Z,2.40
2019-04-25T22:52:30.425Z,2.57
2019-04-25T22:55:02.480Z,2.60
2019-04-25T22:57:34.125Z,2.80
2019-04-25T23:00:05.514Z,2.90
2019-04-25T23:02:37.233Z,4.07
2019-04-25T23:05:14.385Z,4.50
2019-04-25T23:07:42.349Z,3.87
2019-04-25T23:10:13.875Z,5.17
2019-04-25T23:12:44.937Z,5.10
2019-04-25T23:15:14.837Z,5.60
2019-04-25T23:17:44.590Z,6.67
2019-04-25T23:20:14.681Z,6.73
2019-04-25T23:22:45.425Z,7.50
2019-04-25T23:25:19.692Z,7.17
2019-04-25T23:28:03.644Z,6.87
2019-04-25T23:30:41.709Z,6.50
2019-04-25T23:33:13.002Z,6.90
2019-04-25T23:35:42.833Z,6.03
2019-04-25T23:38:14.814Z,5.37
2019-04-25T23:40:45.805Z,5.80
2019-04-25T23:43:16.125Z,5.87
2019-04-25T23:45:48.522Z,5.50
2019-04-25T23:48:18.497Z,4.60
2019-04-25T23:50:49.149Z,5.60
2019-04-25T23:53:21.805Z,5.17
2019-04-25T23:55:52.862Z,5.27
2019-04-25T23:58:23.904Z,5.50
